Aérodrome :







RETROUVEZ-NOUS SUR...

 
LOGIN :

S'inscrire | Disclaimer

   EN    FR    IT 

 









Légende :    VFR   VFR Marginal   IFR   IFR Intensif   IFR Très Intensif
Visi : 
Plafond : 
>= 8 km
>= 3000ft
5 à 8 km
1000 à 3000 ft
1500m à 5 km
500 à 1000 ft
800 à 1500m
200 à 500 ft
< 800m
< 200 ft
Symboles :   Orages  Brouillard  Fortes neiges  Fortes précipitations  Vent > 20 kt






- Altitude de l'aérodrome : 489 ft


KHUL - Houlton International

DERNIER METAR :
  • 150233Z AUTO 13008G17KT 2 1/2SM -RA BR OVC007 04/03 A2916 RMK AO2 VIS 2V4 RAB03 P0001 T00440033

METARs EXPIRÉS :
  • 150223Z AUTO 11009KT 1 3/4SM -RA BR OVC005 04/03 A2917 RMK AO2 RAB03 PRESFR P0001 T00440033
  • 150153Z AUTO 12008KT 2SM BR OVC007 04/03 A2920 RMK AO2 SLP892 T00440033
  • 150135Z AUTO 12008KT 2SM BR OVC009 04/03 A2921 RMK AO2 T00440033
  • 150053Z AUTO 12009G14KT 1 1/2SM BR OVC010 04/03 A2924 RMK AO2 SLP905 T00440033
  • 150020Z AUTO 1 3/4SM BR OVC012 04/03 A2927 RMK AO2 T00390028
  • 142353Z AUTO VRB05KT 2 1/2SM BR OVC014 04/03 A2928 RMK AO2 SLP920 60020 T00390028 10050 20039 56042

TAF KHUL
Valide du 15 à 00h jusqu'au 16 à 00h UTC


142320Z 1500/1524 09006KT 2SM BR OVC007
FM150400 15010G18KT 3SM -RA BR OVC002 WS020/18040KT
FM150800 18011G20KT P6SM VCSH OVC003 WS020/20045KT
FM151000 19011G21KT 5SM BR VCSH OVC007 WS020/21040KT
FM151200 20012G25KT P6SM OVC020
FM151700 23016G37KT P6SM BKN035



MET'MAP, la Météo Aéronautique d'un coup d'oeil ! - Copyright ORBIFLY Décembre 2007 - Disclaimer

ORBIFLY MET'MAP TEAM :

Programmation & Développement : Alexandra Zaïnal
Sur une idée originale de : Baudouin d'Aumeries
Assistance à la programmation : Marc-Olivier Méhu
Soutien technique & logistique : Manuel Goepfert

Contact : metmap@orbifly.com




SOURCES & CREDITS :

   NOAA